createdAt,value
2019-05-10T00:00:47.104Z,1.73
2019-05-10T00:03:36.608Z,1.37
2019-05-10T00:06:25.763Z,1.50
2019-05-10T00:08:56.252Z,1.60
2019-05-10T00:11:41.780Z,1.60
2019-05-10T00:14:45.006Z,1.50
2019-05-10T00:17:19.765Z,1.63
2019-05-10T00:19:51.943Z,1.67
2019-05-10T00:22:26.781Z,1.37
2019-05-10T00:25:04.804Z,1.50
2019-05-10T00:27:32.979Z,1.50
2019-05-10T00:30:05.163Z,1.93
2019-05-10T00:32:37.026Z,1.70
2019-05-10T00:35:08.260Z,1.80
2019-05-10T00:37:39.895Z,1.97
2019-05-10T00:40:11.140Z,2.00
2019-05-10T00:42:42.761Z,2.20
2019-05-10T00:45:14.328Z,1.77
2019-05-10T00:47:46.218Z,2.07
2019-05-10T00:50:18.152Z,2.30
2019-05-10T00:52:49.803Z,2.07
2019-05-10T00:55:21.079Z,2.10
2019-05-10T00:57:52.840Z,1.83
2019-05-10T01:00:24.763Z,2.40
2019-05-10T01:02:56.378Z,2.50
2019-05-10T01:05:27.389Z,2.70
2019-05-10T01:07:59.043Z,2.10
2019-05-10T01:10:30.701Z,2.50
2019-05-10T01:13:02.315Z,2.70
2019-05-10T01:15:33.993Z,2.83
2019-05-10T01:18:05.458Z,3.23
2019-05-10T01:20:37.497Z,2.87
2019-05-10T01:23:09.146Z,3.23
2019-05-10T01:25:41.011Z,2.90
2019-05-10T01:28:12.853Z,3.10
2019-05-10T01:30:44.842Z,3.10
2019-05-10T01:33:16.720Z,2.90
2019-05-10T01:35:48.341Z,3.10
2019-05-10T01:38:20.289Z,2.70
2019-05-10T01:40:52.298Z,2.70
2019-05-10T01:43:23.914Z,3.00
2019-05-10T01:45:55.812Z,3.20
2019-05-10T01:48:27.689Z,3.33
2019-05-10T01:50:58.984Z,3.53
2019-05-10T01:53:30.314Z,3.90
2019-05-10T01:56:02.360Z,3.60
2019-05-10T01:58:33.942Z,3.90
2019-05-10T02:01:05.303Z,3.40
2019-05-10T02:03:37.249Z,4.20
2019-05-10T02:06:09.158Z,4.50
2019-05-10T02:08:41.924Z,4.00
2019-05-10T02:11:13.504Z,3.80
2019-05-10T02:13:45.298Z,4.07
2019-05-10T02:16:16.927Z,3.87
2019-05-10T02:18:48.726Z,3.80
2019-05-10T02:21:21.144Z,4.10
2019-05-10T02:23:52.136Z,3.50
2019-05-10T02:26:24.302Z,3.47
2019-05-10T02:28:56.417Z,3.50
2019-05-10T02:31:27.810Z,3.27
2019-05-10T02:33:59.759Z,3.20
2019-05-10T02:36:31.121Z,3.10
2019-05-10T02:39:02.732Z,3.03
2019-05-10T02:41:34.679Z,2.77
2019-05-10T02:44:06.347Z,2.53
2019-05-10T02:46:37.642Z,2.93
2019-05-10T02:49:09.488Z,2.90
2019-05-10T02:51:40.747Z,3.27
2019-05-10T02:54:12.618Z,3.70
2019-05-10T02:56:44.753Z,4.60
2019-05-10T02:59:17.322Z,5.00
2019-05-10T03:01:48.408Z,5.00
2019-05-10T03:04:23.997Z,5.60
2019-05-10T03:07:04.326Z,5.50
2019-05-10T03:09:36.621Z,6.30
2019-05-10T03:12:26.450Z,6.60
2019-05-10T03:15:00.172Z,7.50
2019-05-10T03:17:31.672Z,7.33
2019-05-10T03:20:03.308Z,7.70
2019-05-10T03:22:42.093Z,7.47
2019-05-10T03:25:16.165Z,7.70
2019-05-10T03:27:48.336Z,7.77
2019-05-10T03:30:19.691Z,8.27
2019-05-10T03:32:51.462Z,8.57
2019-05-10T03:35:22.951Z,9.00
2019-05-10T03:37:54.521Z,8.90
2019-05-10T03:40:26.216Z,8.77
2019-05-10T03:42:57.826Z,9.10
2019-05-10T03:45:29.391Z,8.13
2019-05-10T03:48:01.098Z,8.23
2019-05-10T03:50:32.734Z,7.87
2019-05-10T03:53:04.607Z,7.73
2019-05-10T03:55:36.445Z,8.23
2019-05-10T03:58:08.308Z,7.30
2019-05-10T04:00:39.630Z,7.03
2019-05-10T04:03:11.293Z,8.00
2019-05-10T04:05:43.368Z,7.00
2019-05-10T04:08:15.340Z,8.13
2019-05-10T04:10:47.515Z,7.97
2019-05-10T04:13:18.958Z,8.10
2019-05-10T04:15:55.049Z,7.70
2019-05-10T04:18:26.321Z,7.70
2019-05-10T04:20:58.413Z,7.57
2019-05-10T04:23:30.205Z,7.77
2019-05-10T04:26:02.263Z,8.30
2019-05-10T04:28:33.592Z,7.63
2019-05-10T04:31:05.146Z,7.43
2019-05-10T04:33:37.206Z,8.07
2019-05-10T04:36:12.322Z,7.97
2019-05-10T04:38:41.772Z,7.57
2019-05-10T04:41:13.387Z,7.17
2019-05-10T04:43:45.142Z,8.67
2019-05-10T04:46:16.406Z,7.73
2019-05-10T04:48:48.075Z,8.07
2019-05-10T04:51:19.670Z,7.50
2019-05-10T04:53:51.131Z,7.47
2019-05-10T04:56:22.917Z,7.63
2019-05-10T04:58:54.424Z,6.93
2019-05-10T05:01:26.419Z,7.23
2019-05-10T05:03:58.246Z,6.53
2019-05-10T05:06:29.842Z,6.40
2019-05-10T05:09:01.337Z,6.00
2019-05-10T05:11:33.375Z,6.03
2019-05-10T05:14:09.286Z,6.40
2019-05-10T05:16:38.787Z,6.80
2019-05-10T05:19:10.387Z,6.73
2019-05-10T05:21:41.700Z,5.93
2019-05-10T05:24:16.848Z,6.30
2019-05-10T05:26:46.566Z,6.97
2019-05-10T05:29:17.637Z,5.83
2019-05-10T05:31:54.169Z,5.70
2019-05-10T05:34:22.643Z,5.47
2019-05-10T05:36:54.356Z,4.90
2019-05-10T05:39:26.489Z,5.27
2019-05-10T05:41:57.496Z,4.77
2019-05-10T05:44:28.985Z,5.20
2019-05-10T05:47:04.230Z,5.20
2019-05-10T05:49:33.776Z,5.10
2019-05-10T05:52:05.153Z,4.50
2019-05-10T05:54:36.484Z,4.90
2019-05-10T05:57:08.132Z,5.67
2019-05-10T05:59:40.281Z,5.83
2019-05-10T06:02:13.119Z,5.80
2019-05-10T06:04:46.142Z,6.67
2019-05-10T06:07:18.408Z,5.80
2019-05-10T06:09:50.012Z,6.17
2019-05-10T06:12:21.499Z,5.77
2019-05-10T06:14:53.324Z,5.80
2019-05-10T06:17:29.410Z,5.07
2019-05-10T06:20:00.899Z,6.23
2019-05-10T06:22:32.981Z,5.87
2019-05-10T06:25:06.763Z,5.50
2019-05-10T06:27:41.234Z,5.13
2019-05-10T06:30:12.338Z,5.10
2019-05-10T06:32:44.528Z,5.00
2019-05-10T06:35:19.446Z,5.00
2019-05-10T06:37:49.695Z,4.40
2019-05-10T06:40:33.471Z,4.33
2019-05-10T06:42:54.656Z,4.60
2019-05-10T06:45:26.247Z,4.20
2019-05-10T06:47:58.275Z,4.13
2019-05-10T06:50:31.734Z,4.10
2019-05-10T06:53:07.554Z,4.40
2019-05-10T06:55:36.768Z,4.00
2019-05-10T06:58:08.024Z,3.60
2019-05-10T07:00:44.655Z,3.23
2019-05-10T07:03:13.309Z,3.50
2019-05-10T07:05:44.825Z,3.43
2019-05-10T07:08:20.314Z,3.83
2019-05-10T07:10:50.919Z,3.30
2019-05-10T07:13:22.786Z,3.13
2019-05-10T07:15:54.937Z,3.13
2019-05-10T07:18:26.479Z,3.43
2019-05-10T07:21:00.747Z,2.77
2019-05-10T07:23:31.137Z,3.00
2019-05-10T07:26:03.008Z,3.00
2019-05-10T07:28:34.950Z,2.80
2019-05-10T07:31:06.843Z,2.47
2019-05-10T07:33:40.151Z,2.50
2019-05-10T07:36:15.144Z,2.53
2019-05-10T07:38:45.158Z,2.97
2019-05-10T07:41:19.565Z,2.50
2019-05-10T07:43:50.179Z,2.70
2019-05-10T07:46:21.751Z,2.50
2019-05-10T07:48:53.854Z,2.67
2019-05-10T07:51:28.793Z,2.20
2019-05-10T07:54:04.643Z,2.10
2019-05-10T07:56:32.652Z,2.13
2019-05-10T07:59:04.102Z,1.93
2019-05-10T08:01:35.388Z,1.90
2019-05-10T08:04:08.907Z,1.80
2019-05-10T08:06:47.636Z,1.60
2019-05-10T08:09:14.122Z,1.73
2019-05-10T08:11:48.339Z,1.83
2019-05-10T08:14:19.323Z,2.13
2019-05-10T08:16:58.621Z,1.70
2019-05-10T08:19:24.983Z,1.60
2019-05-10T08:22:01.692Z,1.90
2019-05-10T08:24:35.157Z,1.70
2019-05-10T08:27:09.874Z,1.90
2019-05-10T08:29:36.817Z,1.77
2019-05-10T08:32:09.237Z,2.00
2019-05-10T08:34:51.716Z,2.20
2019-05-10T08:37:19.495Z,2.10
2019-05-10T08:39:50.305Z,2.03
2019-05-10T08:42:37.949Z,1.77
2019-05-10T08:45:04.125Z,2.27
2019-05-10T08:47:28.551Z,1.90
2019-05-10T08:50:19.881Z,2.00
2019-05-10T08:52:35.384Z,1.77
2019-05-10T08:55:08.769Z,2.10
2019-05-10T08:57:44.356Z,1.70
2019-05-10T09:00:14.177Z,2.50
2019-05-10T09:02:45.585Z,2.10
2019-05-10T09:05:21.001Z,2.47
2019-05-10T09:07:52.141Z,2.17
2019-05-10T09:10:23.945Z,1.73
2019-05-10T09:12:58.150Z,1.80
2019-05-10T09:15:28.786Z,1.63
2019-05-10T09:18:04.364Z,2.20
2019-05-10T09:20:33.942Z,1.93
2019-05-10T09:23:08.584Z,2.40
2019-05-10T09:25:39.598Z,2.30
2019-05-10T09:28:16.808Z,2.50
2019-05-10T09:30:56.565Z,2.40
2019-05-10T09:33:18.938Z,2.30
2019-05-10T09:35:54.613Z,2.90
2019-05-10T09:38:23.818Z,3.07
2019-05-10T09:40:56.246Z,2.80
2019-05-10T09:43:28.554Z,2.40
2019-05-10T09:46:02.729Z,2.50
2019-05-10T09:48:34.556Z,2.33
2019-05-10T09:51:05.713Z,2.70
2019-05-10T09:53:39.940Z,1.90
2019-05-10T09:56:11.660Z,2.10
2019-05-10T09:58:43.146Z,2.60
2019-05-10T10:01:21.238Z,3.10
2019-05-10T10:03:48.048Z,2.80
2019-05-10T10:06:19.830Z,2.73
2019-05-10T10:08:53.641Z,3.00
2019-05-10T10:11:27.665Z,2.50
2019-05-10T10:14:01.702Z,2.73
2019-05-10T10:16:31.988Z,2.20
2019-05-10T10:19:03.840Z,2.80
2019-05-10T10:21:38.902Z,2.60
2019-05-10T10:24:15.492Z,2.37
2019-05-10T10:26:43.402Z,2.83
2019-05-10T10:29:17.338Z,2.03
2019-05-10T10:31:54.798Z,2.20
2019-05-10T10:34:21.323Z,3.30
2019-05-10T10:36:53.081Z,2.80
2019-05-10T10:39:24.868Z,2.60
2019-05-10T10:41:57.099Z,2.50
2019-05-10T10:44:28.881Z,3.10
2019-05-10T10:47:01.056Z,2.50
2019-05-10T10:49:32.184Z,2.60
2019-05-10T10:52:05.806Z,3.07
2019-05-10T10:54:39.660Z,3.07
2019-05-10T10:57:09.517Z,2.40
2019-05-10T10:59:40.802Z,2.90
2019-05-10T11:02:33.417Z,2.80
2019-05-10T11:04:46.574Z,2.37
2019-05-10T11:07:18.762Z,2.80
2019-05-10T11:09:53.885Z,2.33
2019-05-10T11:12:24.653Z,2.97
2019-05-10T11:14:56.403Z,3.27
2019-05-10T11:17:28.077Z,2.80
2019-05-10T11:20:00.585Z,2.50
2019-05-10T11:22:32.476Z,2.40
2019-05-10T11:25:09.556Z,2.47
2019-05-10T11:27:37.367Z,2.80
2019-05-10T11:30:08.679Z,3.03
2019-05-10T11:32:41.773Z,2.97
2019-05-10T11:35:18.999Z,2.73
2019-05-10T11:37:46.916Z,2.23
2019-05-10T11:40:28.022Z,2.47
2019-05-10T11:42:52.175Z,2.30
2019-05-10T11:45:29.538Z,2.37
2019-05-10T11:48:01.849Z,2.40
2019-05-10T11:50:35.277Z,2.00
2019-05-10T11:55:41.190Z,2.37
2019-05-10T11:58:13.437Z,1.90
2019-05-10T12:00:44.852Z,3.03
2019-05-10T12:03:19.819Z,2.17
2019-05-10T12:08:23.393Z,2.50
2019-05-10T12:11:07.459Z,2.33
2019-05-10T12:13:32.580Z,2.77
2019-05-10T12:16:02.051Z,2.70
2019-05-10T12:18:36.275Z,2.37
2019-05-10T12:21:09.593Z,2.40
2019-05-10T12:23:50.434Z,2.67
2019-05-10T12:25:59.930Z,2.50
2019-05-10T12:26:05.891Z,2.17
2019-05-10T12:28:47.344Z,2.30
2019-05-10T12:31:22.985Z,2.20
2019-05-10T12:33:52.743Z,2.53
2019-05-10T12:36:27.539Z,2.70
2019-05-10T12:38:59.005Z,2.40
2019-05-10T12:41:31.608Z,2.00
2019-05-10T12:44:06.789Z,2.40
2019-05-10T12:46:38.855Z,2.70
2019-05-10T12:49:12.020Z,2.27
2019-05-10T12:51:43.333Z,2.37
2019-05-10T12:54:18.510Z,2.60
2019-05-10T12:56:48.503Z,2.27
2019-05-10T12:59:20.165Z,2.83
2019-05-10T13:01:52.032Z,2.30
2019-05-10T13:04:39.414Z,3.30
2019-05-10T13:06:57.020Z,3.80
2019-05-10T13:09:39.778Z,3.57
2019-05-10T13:12:04.003Z,4.23
2019-05-10T13:14:40.225Z,4.70
2019-05-10T13:17:12.382Z,4.40
2019-05-10T13:19:43.620Z,4.73
2019-05-10T13:22:15.578Z,4.63
2019-05-10T13:24:48.254Z,4.87
2019-05-10T13:27:20.595Z,5.07
2019-05-10T13:29:53.546Z,5.13
2019-05-10T13:32:26.210Z,4.83
2019-05-10T13:34:58.281Z,5.37
2019-05-10T13:37:30.354Z,5.50
2019-05-10T13:40:05.293Z,5.60
2019-05-10T13:42:36.315Z,5.37
2019-05-10T13:45:08.544Z,6.30
2019-05-10T13:47:39.629Z,5.80
2019-05-10T13:50:12.022Z,5.70
2019-05-10T13:52:43.533Z,5.90
2019-05-10T13:55:15.402Z,4.67
2019-05-10T13:57:47.690Z,5.20
2019-05-10T14:00:19.752Z,5.90
2019-05-10T14:02:50.763Z,5.20
2019-05-10T14:05:22.647Z,5.20
2019-05-10T14:07:54.527Z,6.77
2019-05-10T14:10:26.008Z,8.23
2019-05-10T14:13:02.571Z,5.63
2019-05-10T14:15:31.218Z,5.10
2019-05-10T14:18:02.524Z,4.43
2019-05-10T14:20:34.646Z,4.10
2019-05-10T14:23:06.130Z,3.30
2019-05-10T14:25:38.959Z,3.50
2019-05-10T14:28:15.773Z,3.60
2019-05-10T14:30:46.907Z,3.17
2019-05-10T14:33:17.259Z,3.40
2019-05-10T14:35:49.730Z,4.37
2019-05-10T14:38:22.804Z,3.50
2019-05-10T14:40:53.799Z,4.33
2019-05-10T14:43:25.352Z,4.73
2019-05-10T14:45:57.008Z,4.40
2019-05-10T14:48:30.566Z,4.47
2019-05-10T14:51:10.577Z,3.17
2019-05-10T14:53:35.457Z,2.97
2019-05-10T14:56:07.959Z,2.47
2019-05-10T14:58:40.052Z,1.70
2019-05-10T15:01:11.452Z,2.47
2019-05-10T15:03:45.775Z,2.57
2019-05-10T15:06:16.705Z,2.60
2019-05-10T15:08:48.009Z,2.43
2019-05-10T15:11:19.304Z,2.87
2019-05-10T15:13:50.597Z,3.27
2019-05-10T15:16:27.214Z,3.07
2019-05-10T15:18:55.750Z,3.10
2019-05-10T15:21:27.669Z,3.30
2019-05-10T15:24:00.973Z,3.90
2019-05-10T15:26:37.421Z,4.10
2019-05-10T15:29:06.245Z,3.90
2019-05-10T15:31:38.084Z,3.90
2019-05-10T15:34:09.914Z,4.00
2019-05-10T15:36:41.335Z,3.80
2019-05-10T15:39:13.330Z,3.70
2019-05-10T15:41:44.350Z,3.80
2019-05-10T15:44:16.168Z,4.40
2019-05-10T15:46:48.133Z,3.87
2019-05-10T15:51:56.900Z,3.93
2019-05-10T15:54:27.112Z,4.53
2019-05-10T15:56:59.055Z,4.57
2019-05-10T15:59:23.466Z,3.83
2019-05-10T15:59:30.619Z,4.00
2019-05-10T16:02:02.302Z,4.30
2019-05-10T16:04:33.826Z,4.23
2019-05-10T16:07:09.418Z,4.60
2019-05-10T16:09:38.677Z,4.90
2019-05-10T16:12:09.930Z,4.70
2019-05-10T16:14:45.272Z,4.37
2019-05-10T16:17:17.033Z,3.77
2019-05-10T16:19:55.920Z,3.53
2019-05-10T16:22:25.161Z,3.13
2019-05-10T16:25:00.966Z,3.07
2019-05-10T16:27:27.771Z,2.90
2019-05-10T16:29:59.389Z,2.23
2019-05-10T16:32:34.526Z,2.50
2019-05-10T16:35:11.784Z,2.20
2019-05-10T16:37:38.108Z,3.50
2019-05-10T16:40:09.801Z,2.23
2019-05-10T16:42:41.480Z,2.50
2019-05-10T16:45:13.207Z,2.47
2019-05-10T16:47:45.018Z,3.17
2019-05-10T16:50:16.710Z,2.30
2019-05-10T16:52:49.901Z,2.30
2019-05-10T16:55:21.573Z,2.00
2019-05-10T16:57:52.954Z,4.33
2019-05-10T17:00:25.200Z,4.17
2019-05-10T17:02:56.979Z,3.23
2019-05-10T17:05:28.795Z,3.10
2019-05-10T17:08:00.938Z,2.20
2019-05-10T17:10:34.489Z,2.70
2019-05-10T17:13:06.696Z,2.90
2019-05-10T17:15:39.946Z,3.63
2019-05-10T17:18:17.518Z,4.30
2019-05-10T17:20:50.425Z,4.13
2019-05-10T17:23:18.820Z,4.80
2019-05-10T17:25:50.481Z,4.70
2019-05-10T17:28:23.668Z,5.27
2019-05-10T17:31:00.003Z,5.50
2019-05-10T17:33:28.206Z,5.33
2019-05-10T17:36:07.971Z,4.40
2019-05-10T17:38:33.203Z,4.17
2019-05-10T17:41:04.990Z,5.40
2019-05-10T17:43:36.890Z,4.30
2019-05-10T17:46:12.927Z,5.13
2019-05-10T17:48:47.553Z,5.33
2019-05-10T17:51:15.421Z,4.50
2019-05-10T17:53:47.355Z,5.03
2019-05-10T17:56:18.743Z,6.17
2019-05-10T17:58:50.065Z,6.93
2019-05-10T18:01:21.899Z,4.83
2019-05-10T18:03:53.213Z,4.37
2019-05-10T18:06:25.353Z,4.20
2019-05-10T18:08:56.698Z,4.40
2019-05-10T18:11:28.093Z,4.23
2019-05-10T18:13:59.675Z,6.27
2019-05-10T18:16:30.863Z,7.47
2019-05-10T18:19:02.858Z,5.90
2019-05-10T18:21:35.031Z,5.40
2019-05-10T18:24:06.730Z,5.27
2019-05-10T18:26:39.565Z,5.70
2019-05-10T18:29:11.072Z,5.93
2019-05-10T18:31:54.562Z,5.70
2019-05-10T18:34:16.281Z,5.87
2019-05-10T18:36:51.577Z,5.77
2019-05-10T18:39:21.775Z,5.33
2019-05-10T18:41:53.995Z,5.00
2019-05-10T18:44:25.921Z,4.70
2019-05-10T18:46:57.562Z,4.97
2019-05-10T18:49:29.727Z,5.07
2019-05-10T18:52:04.653Z,5.20
2019-05-10T18:54:34.383Z,4.93
2019-05-10T18:57:12.152Z,5.33
2019-05-10T18:59:45.530Z,5.50
2019-05-10T19:02:17.984Z,5.17
2019-05-10T19:04:52.061Z,6.60
2019-05-10T19:07:19.801Z,11.83
2019-05-10T19:09:51.687Z,14.47
2019-05-10T19:12:24.126Z,18.27
2019-05-10T19:14:55.688Z,15.50
2019-05-10T19:17:28.077Z,15.00
2019-05-10T19:19:59.937Z,11.33
2019-05-10T19:22:30.953Z,7.70
2019-05-10T19:25:10.384Z,6.50
2019-05-10T19:27:38.907Z,6.53
2019-05-10T19:30:10.140Z,6.57
2019-05-10T19:32:41.772Z,7.30
2019-05-10T19:35:13.846Z,6.20
2019-05-10T19:37:46.730Z,6.80
2019-05-10T19:40:18.405Z,7.20
2019-05-10T19:42:50.385Z,8.53
2019-05-10T19:45:22.226Z,9.97
2019-05-10T19:47:55.802Z,16.33
2019-05-10T19:50:31.005Z,11.03
2019-05-10T19:53:03.800Z,9.73
2019-05-10T19:55:34.581Z,8.13
2019-05-10T19:58:06.168Z,7.30
2019-05-10T20:00:37.170Z,8.07
2019-05-10T20:03:08.986Z,7.67
2019-05-10T20:05:41.413Z,7.57
2019-05-10T20:08:12.996Z,7.77
2019-05-10T20:10:44.573Z,7.67
2019-05-10T20:13:16.428Z,8.40
2019-05-10T20:15:48.509Z,10.20
2019-05-10T20:18:20.056Z,10.70
2019-05-10T20:20:52.277Z,9.03
2019-05-10T20:23:23.643Z,9.40
2019-05-10T20:25:59.032Z,8.57
2019-05-10T20:28:28.596Z,8.37
2019-05-10T20:31:00.752Z,7.87
2019-05-10T20:33:33.063Z,8.30
2019-05-10T20:36:04.715Z,8.80
2019-05-10T20:38:36.792Z,10.70
2019-05-10T20:41:08.753Z,15.73
2019-05-10T20:43:40.819Z,24.03
2019-05-10T20:46:12.821Z,13.70
2019-05-10T20:48:44.388Z,10.80
2019-05-10T20:51:15.986Z,12.40
2019-05-10T20:53:48.231Z,12.07
2019-05-10T20:56:20.563Z,11.07
2019-05-10T20:58:52.503Z,9.43
2019-05-10T21:01:24.534Z,9.33
2019-05-10T21:03:55.600Z,10.30
2019-05-10T21:06:27.235Z,7.53
2019-05-10T21:08:58.784Z,8.05
2019-05-10T21:11:31.139Z,9.23
2019-05-10T21:14:02.780Z,10.27
2019-05-10T21:16:34.048Z,10.08
2019-05-10T21:19:06.075Z,9.63
2019-05-10T21:21:37.685Z,8.67
2019-05-10T21:24:08.766Z,9.13
2019-05-10T21:26:40.073Z,8.77
2019-05-10T21:29:11.693Z,9.27
2019-05-10T21:31:43.559Z,10.70
2019-05-10T21:34:16.682Z,10.68
2019-05-10T21:36:47.956Z,10.00
2019-05-10T21:39:19.681Z,9.23
2019-05-10T21:41:51.636Z,8.85
2019-05-10T21:44:23.606Z,10.37
2019-05-10T21:46:54.928Z,10.33
2019-05-10T21:49:26.503Z,9.57
2019-05-10T21:51:58.362Z,9.40
2019-05-10T21:54:30.278Z,9.63
2019-05-10T21:57:01.985Z,9.95
2019-05-10T21:59:33.892Z,9.45
2019-05-10T22:02:05.975Z,10.05
2019-05-10T22:04:37.647Z,10.55
2019-05-10T22:07:09.288Z,10.60
2019-05-10T22:09:41.311Z,10.75
2019-05-10T22:12:12.903Z,10.23
2019-05-10T22:14:44.708Z,10.03
2019-05-10T22:17:16.898Z,10.28
2019-05-10T22:19:48.366Z,10.55
2019-05-10T22:22:20.183Z,10.58
2019-05-10T22:24:52.121Z,10.05
2019-05-10T22:27:23.723Z,10.18
2019-05-10T22:29:55.286Z,10.57
2019-05-10T22:32:27.506Z,12.07
2019-05-10T22:34:59.258Z,12.63
2019-05-10T22:37:31.449Z,13.97
2019-05-10T22:40:02.732Z,15.50
2019-05-10T22:42:34.385Z,10.40
2019-05-10T22:45:06.700Z,8.98
2019-05-10T22:47:37.737Z,9.35
2019-05-10T22:50:11.220Z,9.03
2019-05-10T22:52:42.852Z,8.35
2019-05-10T22:55:14.745Z,9.35
2019-05-10T22:57:46.370Z,9.63
2019-05-10T23:00:18.248Z,11.12
2019-05-10T23:02:49.816Z,10.37
2019-05-10T23:05:21.782Z,9.25
2019-05-10T23:07:53.103Z,10.00
2019-05-10T23:10:25.023Z,11.12
2019-05-10T23:12:56.713Z,9.93
2019-05-10T23:15:28.140Z,9.83
2019-05-10T23:17:59.709Z,9.60
2019-05-10T23:20:30.979Z,9.48
2019-05-10T23:23:03.839Z,9.45
2019-05-10T23:25:36.387Z,9.73
2019-05-10T23:28:08.012Z,11.08
2019-05-10T23:30:39.661Z,10.72
2019-05-10T23:33:11.220Z,10.68
2019-05-10T23:35:42.610Z,10.75
2019-05-10T23:38:14.539Z,10.53
2019-05-10T23:40:46.231Z,11.65
2019-05-10T23:43:18.136Z,10.25
2019-05-10T23:45:50.082Z,10.58
2019-05-10T23:48:21.620Z,10.08
2019-05-10T23:50:53.120Z,10.23
2019-05-10T23:53:24.564Z,9.43
2019-05-10T23:55:56.421Z,9.93
2019-05-10T23:58:28.047Z,9.30
